Terminal Aerodrome Forecast
Issued by NWS

Home | Current Version | Previous Version | Graphics & Text | Print | Product List | Glossary On
Versions: 1 2 3 4 5 6 7 8 9 10 11 12 13 14 15 16 17 18 19 20 21
083
FTUS43 KIWX 110157 AAB
TAFSBN
TAF AMD
KSBN 110157Z 1102/1124 26010KT 5SM -SHSN OVC035
      TEMPO 1102/1106 2SM -SHSN OVC020
     FM110600 30009KT 4SM -SHSN BKN025=

USA.gov is the U.S. government's official web portal to all federal, state and local government web resources and services.